createdAt,value
2022-08-20T00:00:36.278Z,9.80
2022-08-20T00:03:07.080Z,10.75
2022-08-20T00:05:37.440Z,12.00
2022-08-20T00:08:06.376Z,11.27
2022-08-20T00:10:37.731Z,11.32
2022-08-20T00:13:08.631Z,11.10
2022-08-20T00:15:39.924Z,11.10
2022-08-20T00:18:09.108Z,10.98
2022-08-20T00:20:46.021Z,11.20
2022-08-20T00:23:15.118Z,11.30
2022-08-20T00:25:44.067Z,12.40
2022-08-20T00:28:13.101Z,11.80
2022-08-20T00:30:45.841Z,11.27
2022-08-20T00:33:17.584Z,11.70
2022-08-20T00:35:56.596Z,11.88
2022-08-20T00:38:25.847Z,11.60
2022-08-20T00:40:56.622Z,11.73
2022-08-20T00:43:35.683Z,12.88
2022-08-20T00:46:08.996Z,12.45
2022-08-20T00:48:39.563Z,13.25
2022-08-20T00:51:11.270Z,12.68
2022-08-20T00:53:40.698Z,12.93
2022-08-20T00:56:10.625Z,12.45
2022-08-20T00:58:41.232Z,12.68
2022-08-20T01:01:11.147Z,12.45
2022-08-20T01:03:43.432Z,12.80
2022-08-20T01:06:12.541Z,12.63
2022-08-20T01:08:42.665Z,12.82
2022-08-20T01:11:13.010Z,14.52
2022-08-20T01:13:42.685Z,11.85
2022-08-20T01:16:19.959Z,12.40
2022-08-20T01:18:49.701Z,12.95
2022-08-20T01:21:22.818Z,12.75
2022-08-20T01:23:57.024Z,12.80
2022-08-20T01:26:29.374Z,12.50
2022-08-20T01:28:58.929Z,12.30
2022-08-20T01:31:28.515Z,13.05
2022-08-20T01:33:57.815Z,12.90
2022-08-20T01:36:30.369Z,12.82
2022-08-20T01:38:59.254Z,13.70
2022-08-20T01:41:36.465Z,12.73
2022-08-20T01:44:05.878Z,12.95
2022-08-20T01:46:43.661Z,12.85
2022-08-20T01:49:23.412Z,13.63
2022-08-20T01:51:52.937Z,13.55
2022-08-20T01:54:21.916Z,11.18
2022-08-20T01:56:56.947Z,13.30
2022-08-20T01:59:26.585Z,12.52
2022-08-20T02:01:55.704Z,12.60
2022-08-20T02:04:25.012Z,13.35
2022-08-20T02:06:57.346Z,12.45
2022-08-20T02:09:27.222Z,13.07
2022-08-20T02:11:57.550Z,11.82
2022-08-20T02:14:26.529Z,13.02
2022-08-20T02:16:58.350Z,13.30
2022-08-20T02:19:29.558Z,12.63
2022-08-20T02:22:00.477Z,12.43
2022-08-20T02:24:29.979Z,12.82
2022-08-20T02:26:59.806Z,12.02
2022-08-20T02:29:28.388Z,12.88
2022-08-20T02:32:24.736Z,12.45
2022-08-20T02:34:45.409Z,12.18
2022-08-20T02:37:18.370Z,12.13
2022-08-20T02:39:47.154Z,12.50
2022-08-20T02:42:17.395Z,11.13
2022-08-20T02:44:46.401Z,12.63
2022-08-20T02:47:14.855Z,13.00
2022-08-20T02:49:43.257Z,14.15
2022-08-20T02:52:11.653Z,13.27
2022-08-20T02:54:40.062Z,13.68
2022-08-20T02:57:13.943Z,11.70
2022-08-20T02:59:45.250Z,12.77
2022-08-20T03:02:13.754Z,13.52
2022-08-20T03:04:42.892Z,13.13
2022-08-20T03:07:11.565Z,14.07
2022-08-20T03:09:40.102Z,14.90
2022-08-20T03:12:08.654Z,16.48
2022-08-20T03:14:37.521Z,15.68
2022-08-20T03:17:07.410Z,15.18
2022-08-20T03:19:35.952Z,14.63
2022-08-20T03:22:04.355Z,14.52
2022-08-20T03:24:33.156Z,15.15
2022-08-20T03:27:01.541Z,14.13
2022-08-20T03:29:30.095Z,14.75
2022-08-20T03:31:58.552Z,13.48
2022-08-20T03:34:29.402Z,14.35
2022-08-20T03:36:57.805Z,15.07
2022-08-20T03:39:26.233Z,14.65
2022-08-20T03:41:55.202Z,14.85
2022-08-20T03:44:23.691Z,13.93
2022-08-20T03:46:52.146Z,14.15
2022-08-20T03:49:20.934Z,14.38
2022-08-20T03:51:57.242Z,15.15
2022-08-20T03:54:31.822Z,16.17
2022-08-20T03:57:01.426Z,14.82
2022-08-20T03:59:29.960Z,14.75
2022-08-20T04:01:58.483Z,15.45
2022-08-20T04:04:26.952Z,15.13
2022-08-20T04:06:56.790Z,14.75
2022-08-20T04:09:25.181Z,14.85
2022-08-20T04:12:00.205Z,15.10
2022-08-20T04:14:29.337Z,15.52
2022-08-20T04:16:58.589Z,15.45
2022-08-20T04:19:30.142Z,15.60
2022-08-20T04:22:02.338Z,16.33
2022-08-20T04:24:32.630Z,14.80
2022-08-20T04:27:02.540Z,14.68
2022-08-20T04:29:32.588Z,14.57
2022-08-20T04:32:02.819Z,15.63
2022-08-20T04:34:34.629Z,16.30
2022-08-20T04:37:04.886Z,15.90
2022-08-20T04:39:33.427Z,14.85
2022-08-20T04:42:00.891Z,14.73
2022-08-20T04:44:29.606Z,15.98
2022-08-20T04:46:58.415Z,15.68
2022-08-20T04:49:28.008Z,16.05
2022-08-20T04:51:57.601Z,16.00
2022-08-20T04:54:27.431Z,15.40
2022-08-20T04:56:55.958Z,15.52
2022-08-20T04:59:24.726Z,14.73
2022-08-20T05:01:53.177Z,14.32
2022-08-20T05:04:21.592Z,14.65
2022-08-20T05:06:50.450Z,13.65
2022-08-20T05:09:19.229Z,15.35
2022-08-20T05:11:49.257Z,14.38
2022-08-20T05:14:17.913Z,14.68
2022-08-20T05:16:47.002Z,15.18
2022-08-20T05:19:15.643Z,14.27
2022-08-20T05:21:45.369Z,15.18
2022-08-20T05:24:16.507Z,13.55
2022-08-20T05:26:45.049Z,14.02
2022-08-20T05:29:15.433Z,13.98
2022-08-20T05:31:43.885Z,13.60
2022-08-20T05:34:13.077Z,12.60
2022-08-20T05:36:41.778Z,13.38
2022-08-20T05:39:10.419Z,12.52
2022-08-20T05:41:40.792Z,12.32
2022-08-20T05:44:10.872Z,13.27
2022-08-20T05:46:41.674Z,13.15
2022-08-20T05:49:11.997Z,12.98
2022-08-20T05:51:40.441Z,12.23
2022-08-20T05:54:09.789Z,12.18
2022-08-20T05:56:38.688Z,11.52
2022-08-20T05:59:07.976Z,12.20
2022-08-20T06:01:37.632Z,11.52
2022-08-20T06:04:25.260Z,13.45
2022-08-20T06:06:53.966Z,11.68
2022-08-20T06:09:31.127Z,11.82
2022-08-20T06:12:06.508Z,11.98
2022-08-20T06:14:34.893Z,12.50
2022-08-20T06:17:07.625Z,11.13
2022-08-20T06:19:38.582Z,11.95
2022-08-20T06:22:17.915Z,12.00
2022-08-20T06:24:54.123Z,11.63
2022-08-20T06:27:23.436Z,11.85
2022-08-20T06:29:53.365Z,12.77
2022-08-20T06:32:28.735Z,12.80
2022-08-20T06:35:03.881Z,11.73
2022-08-20T06:37:33.081Z,11.13
2022-08-20T06:40:04.090Z,11.30
2022-08-20T06:42:32.621Z,12.98
2022-08-20T06:45:04.856Z,11.27
2022-08-20T06:47:33.477Z,11.02
2022-08-20T06:50:03.205Z,10.02
2022-08-20T06:53:03.133Z,10.65
2022-08-20T06:55:19.993Z,11.57
2022-08-20T06:57:48.895Z,10.32
2022-08-20T07:00:20.738Z,10.95
2022-08-20T07:02:50.283Z,10.45
2022-08-20T07:05:20.075Z,9.98
2022-08-20T07:07:51.129Z,10.43
2022-08-20T07:10:21.042Z,9.85
2022-08-20T07:12:51.118Z,10.55
2022-08-20T07:15:21.263Z,10.13
2022-08-20T07:17:56.404Z,11.18
2022-08-20T07:20:32.771Z,10.45
2022-08-20T07:23:01.690Z,10.13
2022-08-20T07:25:31.819Z,10.50
2022-08-20T07:28:02.802Z,9.43
2022-08-20T07:30:56.049Z,10.73
2022-08-20T07:33:26.240Z,10.27
2022-08-20T07:35:58.485Z,9.05
2022-08-20T07:38:28.264Z,9.57
2022-08-20T07:40:58.471Z,10.07
2022-08-20T07:43:27.654Z,10.60
2022-08-20T07:46:00.784Z,10.60
2022-08-20T07:48:32.537Z,10.02
2022-08-20T07:51:04.561Z,10.15
2022-08-20T07:53:35.667Z,10.48
2022-08-20T07:56:05.929Z,9.93
2022-08-20T07:58:35.860Z,9.88
2022-08-20T08:01:05.152Z,9.63
2022-08-20T08:03:41.108Z,9.80
2022-08-20T08:06:29.585Z,9.57
2022-08-20T08:09:03.175Z,9.60
2022-08-20T08:11:33.638Z,8.15
2022-08-20T08:14:05.314Z,9.05
2022-08-20T08:16:36.155Z,9.60
2022-08-20T08:19:08.625Z,9.80
2022-08-20T08:21:41.282Z,9.30
2022-08-20T08:24:12.746Z,8.85
2022-08-20T08:26:43.146Z,8.63
2022-08-20T08:29:12.113Z,8.60
2022-08-20T08:31:41.103Z,8.63
2022-08-20T08:34:09.641Z,8.82
2022-08-20T08:36:39.231Z,8.30
2022-08-20T08:39:07.817Z,8.55
2022-08-20T08:41:38.049Z,7.28
2022-08-20T08:44:09.458Z,8.80
2022-08-20T08:46:41.769Z,8.00
2022-08-20T08:49:13.194Z,7.15
2022-08-20T08:51:46.298Z,8.10
2022-08-20T08:54:17.865Z,6.88
2022-08-20T08:56:49.692Z,6.32
2022-08-20T08:59:20.893Z,6.30
2022-08-20T09:01:55.920Z,5.78
2022-08-20T09:04:32.564Z,5.07
2022-08-20T09:07:04.414Z,5.20
2022-08-20T09:09:36.952Z,5.35
2022-08-20T09:12:07.796Z,4.82
2022-08-20T09:14:36.432Z,5.25
2022-08-20T09:17:05.410Z,5.03
2022-08-20T09:19:34.316Z,5.90
2022-08-20T09:22:10.302Z,4.90
2022-08-20T09:24:38.829Z,4.20
2022-08-20T09:27:07.660Z,4.70
2022-08-20T09:29:36.360Z,4.93
2022-08-20T09:32:09.431Z,5.35
2022-08-20T09:34:39.043Z,4.70
2022-08-20T09:37:10.338Z,4.80
2022-08-20T09:39:44.691Z,3.95
2022-08-20T09:42:15.372Z,4.88
2022-08-20T09:44:43.509Z,4.38
2022-08-20T09:47:11.918Z,4.13
2022-08-20T09:49:41.004Z,4.22
2022-08-20T09:52:14.963Z,4.40
2022-08-20T09:54:46.201Z,3.53
2022-08-20T09:57:15.131Z,4.10
2022-08-20T09:59:43.729Z,4.00
2022-08-20T10:02:11.887Z,4.20
2022-08-20T10:04:40.350Z,3.65
2022-08-20T10:07:11.239Z,4.80
2022-08-20T10:09:40.151Z,3.88
2022-08-20T10:12:09.037Z,2.80
2022-08-20T10:14:37.474Z,2.20
2022-08-20T10:17:05.973Z,1.90
2022-08-20T10:19:34.603Z,1.85
2022-08-20T10:22:03.182Z,2.30
2022-08-20T10:24:33.148Z,1.90
2022-08-20T10:27:02.870Z,1.98
2022-08-20T10:29:31.589Z,1.70
2022-08-20T10:32:13.559Z,1.90
2022-08-20T10:34:42.270Z,1.80
2022-08-20T10:37:11.041Z,1.77
2022-08-20T10:39:41.195Z,1.40
2022-08-20T10:42:10.272Z,1.25
2022-08-20T10:44:39.012Z,1.17
2022-08-20T10:47:21.574Z,1.00
2022-08-20T10:49:50.653Z,1.08
2022-08-20T10:52:19.190Z,1.30
2022-08-20T10:54:49.420Z,1.40
2022-08-20T10:57:20.020Z,1.42
2022-08-20T10:59:50.687Z,1.23
2022-08-20T11:02:21.416Z,1.20
2022-08-20T11:04:50.593Z,1.00
2022-08-20T11:07:22.319Z,1.25
2022-08-20T11:10:14.000Z,1.13
2022-08-20T11:12:43.597Z,0.90
2022-08-20T11:15:14.885Z,0.80
2022-08-20T11:17:44.678Z,0.80
2022-08-20T11:20:15.246Z,0.80
2022-08-20T11:22:43.430Z,0.80
2022-08-20T11:25:13.260Z,0.70
2022-08-20T11:27:44.228Z,0.80
2022-08-20T11:30:16.422Z,1.00
2022-08-20T11:32:44.699Z,1.00
2022-08-20T11:35:40.942Z,1.02
2022-08-20T11:38:02.710Z,0.90
2022-08-20T11:40:32.662Z,1.00
2022-08-20T11:43:17.454Z,1.20
2022-08-20T11:45:48.219Z,1.00
2022-08-20T11:48:16.968Z,1.30
2022-08-20T11:50:45.530Z,1.20
2022-08-20T11:53:14.987Z,1.08
2022-08-20T11:55:44.742Z,1.13
2022-08-20T11:58:14.107Z,1.15
2022-08-20T12:00:42.569Z,0.90
2022-08-20T12:03:11.576Z,1.17
2022-08-20T12:05:41.036Z,1.20
2022-08-20T12:08:09.546Z,0.70
2022-08-20T12:10:38.118Z,0.80
2022-08-20T12:13:08.550Z,0.70
2022-08-20T12:15:37.760Z,0.90
2022-08-20T12:18:07.750Z,1.05
2022-08-20T12:20:36.702Z,1.00
2022-08-20T12:23:05.460Z,0.80
2022-08-20T12:25:34.039Z,0.93
2022-08-20T12:28:02.265Z,1.10
2022-08-20T12:30:32.541Z,1.08
2022-08-20T12:33:01.491Z,0.90
2022-08-20T12:35:30.159Z,0.90
2022-08-20T12:38:00.088Z,0.88
2022-08-20T12:40:32.438Z,1.05
2022-08-20T12:43:01.752Z,1.23
2022-08-20T12:45:30.294Z,1.10
2022-08-20T12:48:04.319Z,1.17
2022-08-20T12:50:33.079Z,1.10
2022-08-20T12:53:01.795Z,1.20
2022-08-20T12:55:30.613Z,1.10
2022-08-20T12:58:00.415Z,0.90
2022-08-20T13:00:34.119Z,1.00
2022-08-20T13:03:05.189Z,0.70
2022-08-20T13:05:33.980Z,1.10
2022-08-20T13:08:02.785Z,0.82
2022-08-20T13:10:32.273Z,0.65
2022-08-20T13:13:02.108Z,0.65
2022-08-20T13:15:33.714Z,0.85
2022-08-20T13:18:04.839Z,0.80
2022-08-20T13:20:34.263Z,0.85
2022-08-20T13:23:03.964Z,0.70
2022-08-20T13:25:32.455Z,0.60
2022-08-20T13:28:03.854Z,0.85
2022-08-20T13:30:33.219Z,0.70
2022-08-20T13:33:01.503Z,0.60
2022-08-20T13:35:31.495Z,0.60
2022-08-20T13:37:59.641Z,0.77
2022-08-20T13:40:28.269Z,0.80
2022-08-20T13:42:56.624Z,1.00
2022-08-20T13:45:25.386Z,0.90
2022-08-20T13:47:55.803Z,0.90
2022-08-20T13:50:26.461Z,0.90
2022-08-20T13:52:56.563Z,0.93
2022-08-20T13:55:26.216Z,1.20
2022-08-20T13:57:55.237Z,0.73
2022-08-20T14:00:31.738Z,1.00
2022-08-20T14:03:00.927Z,1.08
2022-08-20T14:05:29.611Z,1.05
2022-08-20T14:08:06.132Z,1.00
2022-08-20T14:10:34.581Z,1.00
2022-08-20T14:13:03.780Z,1.35
2022-08-20T14:15:32.353Z,1.60
2022-08-20T14:18:01.253Z,1.20
2022-08-20T14:20:31.994Z,1.15
2022-08-20T14:23:02.984Z,1.50
2022-08-20T14:25:33.177Z,1.10
2022-08-20T14:28:10.684Z,0.82
2022-08-20T14:30:39.218Z,1.23
2022-08-20T14:33:07.837Z,0.90
2022-08-20T14:35:36.481Z,1.00
2022-08-20T14:38:06.315Z,1.20
2022-08-20T14:40:35.325Z,1.50
2022-08-20T14:43:04.321Z,0.80
2022-08-20T14:45:32.951Z,1.00
2022-08-20T14:48:01.686Z,0.90
2022-08-20T14:50:31.426Z,0.90
2022-08-20T14:52:59.930Z,1.08
2022-08-20T14:55:32.188Z,0.80
2022-08-20T14:58:00.773Z,1.13
2022-08-20T15:00:30.511Z,0.52
2022-08-20T15:02:59.274Z,1.00
2022-08-20T15:05:27.925Z,1.00
2022-08-20T15:07:59.412Z,0.80
2022-08-20T15:10:29.057Z,0.80
2022-08-20T15:12:59.140Z,1.05
2022-08-20T15:15:27.851Z,1.50
2022-08-20T15:17:57.902Z,1.17
2022-08-20T15:20:27.927Z,1.30
2022-08-20T15:22:56.910Z,1.20
2022-08-20T15:25:26.720Z,1.00
2022-08-20T15:27:58.389Z,1.15
2022-08-20T15:30:33.390Z,1.50
2022-08-20T15:33:02.314Z,1.20
2022-08-20T15:35:31.124Z,1.40
2022-08-20T15:38:00.621Z,1.15
2022-08-20T15:40:30.223Z,1.52
2022-08-20T15:42:59.442Z,1.30
2022-08-20T15:45:28.132Z,1.52
2022-08-20T15:48:03.281Z,1.20
2022-08-20T15:51:02.913Z,1.20
2022-08-20T15:53:33.828Z,1.00
2022-08-20T15:56:11.461Z,1.02
2022-08-20T15:58:46.193Z,5.15
2022-08-20T16:01:25.109Z,1.00
2022-08-20T16:04:05.287Z,1.20
2022-08-20T16:06:34.731Z,1.20
2022-08-20T16:09:09.008Z,1.10
2022-08-20T16:11:47.273Z,1.20
2022-08-20T16:14:17.512Z,1.40
2022-08-20T16:16:47.069Z,1.10
2022-08-20T16:19:20.455Z,1.40
2022-08-20T16:21:49.028Z,1.20
2022-08-20T16:24:17.585Z,1.40
2022-08-20T16:26:53.326Z,1.17
2022-08-20T16:29:26.552Z,1.20
2022-08-20T16:31:57.047Z,1.50
2022-08-20T16:34:33.271Z,1.70
2022-08-20T16:37:06.811Z,1.02
2022-08-20T16:39:39.133Z,1.38
2022-08-20T16:42:10.465Z,1.17
2022-08-20T16:44:40.637Z,2.67
2022-08-20T16:47:15.865Z,1.40
2022-08-20T16:49:48.071Z,1.35
2022-08-20T16:52:16.710Z,1.30
2022-08-20T16:54:46.229Z,1.35
2022-08-20T16:57:17.358Z,1.23
2022-08-20T16:59:59.788Z,1.85
2022-08-20T17:02:28.554Z,1.40
2022-08-20T17:05:04.768Z,1.20
2022-08-20T17:07:46.215Z,1.30
2022-08-20T17:10:17.270Z,1.05
2022-08-20T17:12:47.040Z,1.23
2022-08-20T17:15:23.172Z,1.40
2022-08-20T17:17:51.653Z,1.20
2022-08-20T17:20:21.749Z,1.10
2022-08-20T17:22:51.301Z,1.08
2022-08-20T17:25:20.853Z,1.23
2022-08-20T17:27:49.736Z,1.58
2022-08-20T17:30:22.079Z,0.90
2022-08-20T17:32:57.898Z,1.20
2022-08-20T17:35:31.072Z,0.82
2022-08-20T17:38:01.052Z,1.02
2022-08-20T17:40:31.544Z,1.10
2022-08-20T17:43:02.369Z,0.98
2022-08-20T17:45:33.890Z,1.30
2022-08-20T17:48:03.819Z,1.38
2022-08-20T17:50:34.972Z,0.90
2022-08-20T17:53:07.002Z,1.10
2022-08-20T17:55:37.128Z,1.00
2022-08-20T17:58:08.313Z,1.73
2022-08-20T18:00:36.762Z,1.23
2022-08-20T18:03:11.538Z,1.48
2022-08-20T18:05:41.494Z,1.23
2022-08-20T18:08:16.873Z,1.90
2022-08-20T18:11:00.441Z,1.50
2022-08-20T18:13:34.748Z,1.30
2022-08-20T18:16:03.991Z,2.20
2022-08-20T18:18:33.469Z,1.90
2022-08-20T18:21:12.947Z,1.85
2022-08-20T18:23:43.354Z,2.83
2022-08-20T18:26:18.637Z,5.75
2022-08-20T18:28:48.562Z,1.52
2022-08-20T18:31:26.736Z,1.33
2022-08-20T18:33:55.517Z,1.30
2022-08-20T18:36:30.319Z,2.20
2022-08-20T18:39:00.689Z,1.60
2022-08-20T18:41:29.883Z,1.42
2022-08-20T18:44:06.389Z,3.10
2022-08-20T18:46:35.012Z,2.60
2022-08-20T18:49:05.039Z,1.38
2022-08-20T18:51:41.483Z,1.70
2022-08-20T18:54:10.085Z,3.35
2022-08-20T18:56:40.790Z,1.92
2022-08-20T18:59:14.795Z,1.60
2022-08-20T19:01:44.203Z,6.43
2022-08-20T19:04:22.352Z,21.17
2022-08-20T19:06:57.418Z,10.30
2022-08-20T19:09:44.116Z,6.95
2022-08-20T19:12:30.937Z,3.67
2022-08-20T19:15:01.833Z,3.28
2022-08-20T19:17:48.372Z,3.10
2022-08-20T19:20:19.112Z,2.03
2022-08-20T19:22:50.843Z,1.95
2022-08-20T19:25:26.695Z,1.63
2022-08-20T19:27:55.161Z,1.85
2022-08-20T19:30:33.216Z,1.80
2022-08-20T19:33:02.518Z,1.70
2022-08-20T19:35:31.498Z,1.77
2022-08-20T19:38:02.334Z,2.13
2022-08-20T19:40:33.157Z,2.05
2022-08-20T19:43:09.348Z,2.00
2022-08-20T19:45:39.655Z,3.13
2022-08-20T19:48:27.145Z,2.35
2022-08-20T19:50:59.379Z,2.70
2022-08-20T19:53:31.152Z,3.20
2022-08-20T19:56:01.073Z,2.38
2022-08-20T19:58:29.885Z,2.70
2022-08-20T20:00:59.031Z,2.97
2022-08-20T20:03:29.762Z,3.53
2022-08-20T20:06:00.625Z,3.42
2022-08-20T20:08:31.125Z,3.40
2022-08-20T20:11:00.969Z,2.72
2022-08-20T20:13:31.271Z,2.42
2022-08-20T20:16:05.146Z,2.30
2022-08-20T20:18:36.919Z,1.50
2022-08-20T20:21:13.526Z,2.15
2022-08-20T20:23:46.881Z,2.10
2022-08-20T20:26:20.113Z,1.75
2022-08-20T20:28:56.096Z,2.60
2022-08-20T20:31:26.881Z,2.47
2022-08-20T20:33:57.384Z,2.13
2022-08-20T20:36:35.092Z,1.83
2022-08-20T20:39:14.212Z,2.15
2022-08-20T20:41:51.813Z,2.50
2022-08-20T20:44:22.127Z,2.53
2022-08-20T20:46:57.493Z,2.47
2022-08-20T20:49:27.371Z,3.13
2022-08-20T20:51:57.522Z,2.95
2022-08-20T20:54:28.721Z,3.17
2022-08-20T20:57:01.888Z,3.50
2022-08-20T20:59:30.973Z,3.20
2022-08-20T21:01:59.691Z,2.10
2022-08-20T21:04:29.080Z,1.85
2022-08-20T21:06:58.495Z,1.70
2022-08-20T21:09:28.502Z,1.77
2022-08-20T21:11:56.953Z,1.50
2022-08-20T21:14:25.435Z,1.67
2022-08-20T21:16:54.453Z,1.40
2022-08-20T21:19:23.069Z,1.70
2022-08-20T21:21:51.574Z,1.50
2022-08-20T21:24:20.272Z,1.30
2022-08-20T21:26:51.076Z,1.67
2022-08-20T21:29:22.867Z,1.70
2022-08-20T21:31:51.323Z,1.90
2022-08-20T21:34:19.845Z,1.73
2022-08-20T21:36:48.692Z,1.60
2022-08-20T21:39:17.529Z,1.25
2022-08-20T21:41:46.778Z,2.70
2022-08-20T21:44:21.318Z,2.75
2022-08-20T21:46:50.059Z,2.00
2022-08-20T21:49:19.549Z,2.10
2022-08-20T21:51:48.227Z,2.20
2022-08-20T21:54:17.003Z,2.22
2022-08-20T21:56:46.551Z,2.40
2022-08-20T21:59:15.074Z,2.10
2022-08-20T22:01:45.002Z,2.35
2022-08-20T22:04:14.248Z,3.08
2022-08-20T22:06:42.711Z,2.05
2022-08-20T22:09:12.709Z,1.83
2022-08-20T22:11:41.154Z,1.70
2022-08-20T22:14:10.599Z,2.03
2022-08-20T22:16:39.194Z,1.48
2022-08-20T22:19:16.180Z,2.50
2022-08-20T22:21:44.698Z,2.80
2022-08-20T22:24:13.725Z,2.70
2022-08-20T22:26:43.225Z,3.28
2022-08-20T22:29:12.254Z,4.00
2022-08-20T22:31:42.365Z,5.40
2022-08-20T22:34:12.203Z,4.30
2022-08-20T22:36:42.057Z,3.83
2022-08-20T22:39:10.722Z,2.80
2022-08-20T22:41:39.502Z,2.72
2022-08-20T22:44:08.077Z,3.10
2022-08-20T22:46:40.038Z,2.72
2022-08-20T22:49:12.890Z,3.88
2022-08-20T22:51:45.053Z,3.42
2022-08-20T22:54:17.954Z,4.20
2022-08-20T22:56:46.379Z,3.47
2022-08-20T22:59:16.338Z,3.17
2022-08-20T23:01:46.618Z,3.00
2022-08-20T23:04:15.622Z,2.80
2022-08-20T23:06:51.925Z,2.58
2022-08-20T23:09:21.157Z,2.42
2022-08-20T23:11:49.694Z,2.35
2022-08-20T23:14:18.252Z,2.33
2022-08-20T23:16:47.789Z,2.22
2022-08-20T23:19:18.535Z,2.75
2022-08-20T23:21:53.706Z,2.90
2022-08-20T23:24:22.313Z,3.28
2022-08-20T23:26:55.996Z,3.28
2022-08-20T23:29:25.443Z,3.72
2022-08-20T23:31:55.288Z,3.80
2022-08-20T23:34:23.661Z,3.90
2022-08-20T23:36:53.968Z,3.58
2022-08-20T23:39:22.826Z,3.83
2022-08-20T23:41:51.260Z,3.50
2022-08-20T23:44:26.138Z,3.67
2022-08-20T23:46:55.659Z,3.58
2022-08-20T23:49:24.220Z,3.38
2022-08-20T23:51:53.992Z,4.38
2022-08-20T23:54:22.445Z,4.20
2022-08-20T23:56:50.891Z,3.50
2022-08-20T23:59:19.653Z,3.65
